sensor_id;sensor_type;location;lat;lon;timestamp;P1;durP1;ratioP1;P2;durP2;ratioP2
38717;SDS011;24468;52.128;9.278;2023-10-09T00:00:53;1.88;;;1.00;;
38717;SDS011;24468;52.128;9.278;2023-10-09T00:03:26;4.10;;;1.00;;
38717;SDS011;24468;52.128;9.278;2023-10-09T00:05:53;2.97;;;0.80;;
38717;SDS011;24468;52.128;9.278;2023-10-09T00:08:19;1.63;;;1.23;;
38717;SDS011;24468;52.128;9.278;2023-10-09T00:11:01;3.63;;;1.42;;
38717;SDS011;24468;52.128;9.278;2023-10-09T00:13:45;1.52;;;1.08;;
38717;SDS011;24468;52.128;9.278;2023-10-09T00:16:22;2.28;;;1.30;;
38717;SDS011;24468;52.128;9.278;2023-10-09T00:18:58;2.47;;;1.50;;
38717;SDS011;24468;52.128;9.278;2023-10-09T00:21:39;2.28;;;1.17;;
38717;SDS011;24468;52.128;9.278;2023-10-09T00:24:06;2.63;;;1.08;;
38717;SDS011;24468;52.128;9.278;2023-10-09T00:29:09;3.17;;;0.97;;
38717;SDS011;24468;52.128;9.278;2023-10-09T00:31:40;1.67;;;1.15;;
38717;SDS011;24468;52.128;9.278;2023-10-09T00:34:15;3.63;;;1.50;;
38717;SDS011;24468;52.128;9.278;2023-10-09T00:36:47;4.30;;;1.30;;
38717;SDS011;24468;52.128;9.278;2023-10-09T00:39:20;4.85;;;1.27;;
38717;SDS011;24468;52.128;9.278;2023-10-09T00:42:05;3.38;;;1.77;;
38717;SDS011;24468;52.128;9.278;2023-10-09T00:44:32;2.72;;;1.40;;
38717;SDS011;24468;52.128;9.278;2023-10-09T00:47:08;6.82;;;1.67;;
38717;SDS011;24468;52.128;9.278;2023-10-09T00:49:50;5.00;;;1.30;;
38717;SDS011;24468;52.128;9.278;2023-10-09T00:52:29;7.38;;;1.58;;
38717;SDS011;24468;52.128;9.278;2023-10-09T00:55:08;3.58;;;1.50;;
38717;SDS011;24468;52.128;9.278;2023-10-09T00:57:40;9.90;;;1.48;;
38717;SDS011;24468;52.128;9.278;2023-10-09T01:00:21;5.95;;;1.90;;
38717;SDS011;24468;52.128;9.278;2023-10-09T01:02:57;4.07;;;1.50;;
38717;SDS011;24468;52.128;9.278;2023-10-09T01:05:51;2.67;;;1.45;;
38717;SDS011;24468;52.128;9.278;2023-10-09T01:08:26;5.43;;;1.55;;
38717;SDS011;24468;52.128;9.278;2023-10-09T01:11:12;5.80;;;2.38;;
38717;SDS011;24468;52.128;9.278;2023-10-09T01:13:43;3.45;;;2.03;;
38717;SDS011;24468;52.128;9.278;2023-10-09T01:16:13;3.35;;;1.88;;
38717;SDS011;24468;52.128;9.278;2023-10-09T01:18:49;4.38;;;1.85;;
38717;SDS011;24468;52.128;9.278;2023-10-09T01:21:22;6.78;;;1.63;;
38717;SDS011;24468;52.128;9.278;2023-10-09T01:23:51;3.00;;;1.60;;
38717;SDS011;24468;52.128;9.278;2023-10-09T01:26:30;3.22;;;1.70;;
38717;SDS011;24468;52.128;9.278;2023-10-09T01:28:59;4.35;;;1.52;;
38717;SDS011;24468;52.128;9.278;2023-10-09T01:31:26;2.92;;;1.65;;
38717;SDS011;24468;52.128;9.278;2023-10-09T01:33:53;3.67;;;1.70;;
38717;SDS011;24468;52.128;9.278;2023-10-09T01:36:24;3.65;;;1.67;;
38717;SDS011;24468;52.128;9.278;2023-10-09T01:39:00;4.47;;;1.60;;
38717;SDS011;24468;52.128;9.278;2023-10-09T01:41:46;6.18;;;2.03;;
38717;SDS011;24468;52.128;9.278;2023-10-09T01:44:13;4.55;;;1.60;;
38717;SDS011;24468;52.128;9.278;2023-10-09T01:46:41;5.75;;;2.42;;
38717;SDS011;24468;52.128;9.278;2023-10-09T01:49:10;5.15;;;1.98;;
38717;SDS011;24468;52.128;9.278;2023-10-09T01:51:46;4.53;;;2.00;;
38717;SDS011;24468;52.128;9.278;2023-10-09T01:54:14;4.60;;;1.80;;
38717;SDS011;24468;52.128;9.278;2023-10-09T01:56:58;6.45;;;2.22;;
38717;SDS011;24468;52.128;9.278;2023-10-09T01:59:30;3.45;;;1.83;;
38717;SDS011;24468;52.128;9.278;2023-10-09T02:02:03;4.82;;;2.38;;
38717;SDS011;24468;52.128;9.278;2023-10-09T02:04:50;3.58;;;1.92;;
38717;SDS011;24468;52.128;9.278;2023-10-09T02:07:17;5.97;;;2.70;;
38717;SDS011;24468;52.128;9.278;2023-10-09T02:09:51;2.60;;;2.00;;
38717;SDS011;24468;52.128;9.278;2023-10-09T02:12:19;7.50;;;2.55;;
38717;SDS011;24468;52.128;9.278;2023-10-09T02:14:46;7.18;;;2.00;;
38717;SDS011;24468;52.128;9.278;2023-10-09T02:17:12;4.72;;;2.13;;
38717;SDS011;24468;52.128;9.278;2023-10-09T02:19:45;4.63;;;2.40;;
38717;SDS011;24468;52.128;9.278;2023-10-09T02:22:14;5.22;;;2.17;;
38717;SDS011;24468;52.128;9.278;2023-10-09T02:24:41;5.15;;;2.60;;
38717;SDS011;24468;52.128;9.278;2023-10-09T02:27:15;3.47;;;1.90;;
38717;SDS011;24468;52.128;9.278;2023-10-09T02:29:51;6.30;;;2.70;;
38717;SDS011;24468;52.128;9.278;2023-10-09T02:32:18;9.50;;;3.00;;
38717;SDS011;24468;52.128;9.278;2023-10-09T02:34:51;10.93;;;2.65;;
38717;SDS011;24468;52.128;9.278;2023-10-09T02:37:18;7.47;;;2.53;;
38717;SDS011;24468;52.128;9.278;2023-10-09T02:39:50;5.65;;;3.20;;
38717;SDS011;24468;52.128;9.278;2023-10-09T02:42:17;5.18;;;2.85;;
38717;SDS011;24468;52.128;9.278;2023-10-09T02:44:51;10.45;;;3.92;;
38717;SDS011;24468;52.128;9.278;2023-10-09T02:47:18;13.52;;;3.97;;
38717;SDS011;24468;52.128;9.278;2023-10-09T02:49:49;5.35;;;3.20;;
38717;SDS011;24468;52.128;9.278;2023-10-09T02:52:15;7.68;;;4.28;;
38717;SDS011;24468;52.128;9.278;2023-10-09T02:54:47;8.13;;;3.33;;
38717;SDS011;24468;52.128;9.278;2023-10-09T02:57:13;9.93;;;4.50;;
38717;SDS011;24468;52.128;9.278;2023-10-09T02:59:49;8.00;;;4.53;;
38717;SDS011;24468;52.128;9.278;2023-10-09T03:02:17;10.82;;;4.60;;
38717;SDS011;24468;52.128;9.278;2023-10-09T03:04:43;9.43;;;3.83;;
38717;SDS011;24468;52.128;9.278;2023-10-09T03:07:09;7.68;;;3.00;;
38717;SDS011;24468;52.128;9.278;2023-10-09T03:09:35;7.35;;;3.25;;
38717;SDS011;24468;52.128;9.278;2023-10-09T03:12:02;8.95;;;3.30;;
38717;SDS011;24468;52.128;9.278;2023-10-09T03:14:35;5.05;;;2.88;;
38717;SDS011;24468;52.128;9.278;2023-10-09T03:17:06;8.25;;;3.35;;
38717;SDS011;24468;52.128;9.278;2023-10-09T03:19:36;7.07;;;3.00;;
38717;SDS011;24468;52.128;9.278;2023-10-09T03:22:06;5.93;;;2.80;;
38717;SDS011;24468;52.128;9.278;2023-10-09T03:24:35;8.25;;;4.13;;
38717;SDS011;24468;52.128;9.278;2023-10-09T03:27:02;7.90;;;3.88;;
38717;SDS011;24468;52.128;9.278;2023-10-09T03:29:28;7.10;;;3.80;;
38717;SDS011;24468;52.128;9.278;2023-10-09T03:31:54;10.68;;;5.22;;
38717;SDS011;24468;52.128;9.278;2023-10-09T03:34:21;8.15;;;3.58;;
38717;SDS011;24468;52.128;9.278;2023-10-09T03:36:48;7.63;;;4.80;;
38717;SDS011;24468;52.128;9.278;2023-10-09T03:39:24;6.70;;;4.57;;
38717;SDS011;24468;52.128;9.278;2023-10-09T03:42:03;8.07;;;4.63;;
38717;SDS011;24468;52.128;9.278;2023-10-09T03:44:30;9.63;;;4.13;;
38717;SDS011;24468;52.128;9.278;2023-10-09T03:47:01;11.38;;;5.20;;
38717;SDS011;24468;52.128;9.278;2023-10-09T03:49:30;10.05;;;4.80;;
38717;SDS011;24468;52.128;9.278;2023-10-09T03:51:56;10.13;;;5.40;;
38717;SDS011;24468;52.128;9.278;2023-10-09T03:54:24;15.85;;;5.07;;
38717;SDS011;24468;52.128;9.278;2023-10-09T03:56:50;10.00;;;5.40;;
38717;SDS011;24468;52.128;9.278;2023-10-09T03:59:17;7.13;;;4.28;;
38717;SDS011;24468;52.128;9.278;2023-10-09T04:01:45;6.00;;;3.60;;
38717;SDS011;24468;52.128;9.278;2023-10-09T04:04:13;12.57;;;4.25;;
38717;SDS011;24468;52.128;9.278;2023-10-09T04:06:39;9.70;;;3.47;;
38717;SDS011;24468;52.128;9.278;2023-10-09T04:09:09;4.30;;;2.83;;
38717;SDS011;24468;52.128;9.278;2023-10-09T04:11:44;4.82;;;2.97;;
38717;SDS011;24468;52.128;9.278;2023-10-09T04:14:22;7.00;;;3.13;;
38717;SDS011;24468;52.128;9.278;2023-10-09T04:16:49;6.32;;;3.58;;
38717;SDS011;24468;52.128;9.278;2023-10-09T04:19:29;7.30;;;3.67;;
38717;SDS011;24468;52.128;9.278;2023-10-09T04:22:03;6.43;;;3.03;;
38717;SDS011;24468;52.128;9.278;2023-10-09T04:24:33;6.07;;;3.25;;
38717;SDS011;24468;52.128;9.278;2023-10-09T04:27:06;6.50;;;3.78;;
38717;SDS011;24468;52.128;9.278;2023-10-09T04:29:33;7.25;;;3.10;;
38717;SDS011;24468;52.128;9.278;2023-10-09T04:32:11;7.22;;;3.05;;
38717;SDS011;24468;52.128;9.278;2023-10-09T04:34:41;5.72;;;3.38;;
38717;SDS011;24468;52.128;9.278;2023-10-09T04:37:14;8.48;;;3.42;;
38717;SDS011;24468;52.128;9.278;2023-10-09T04:39:41;7.47;;;4.00;;
38717;SDS011;24468;52.128;9.278;2023-10-09T04:42:14;5.70;;;3.25;;
38717;SDS011;24468;52.128;9.278;2023-10-09T04:44:49;5.53;;;3.00;;
38717;SDS011;24468;52.128;9.278;2023-10-09T04:47:30;5.35;;;2.75;;
38717;SDS011;24468;52.128;9.278;2023-10-09T04:50:03;8.13;;;4.82;;
38717;SDS011;24468;52.128;9.278;2023-10-09T04:52:33;6.15;;;3.35;;
38717;SDS011;24468;52.128;9.278;2023-10-09T04:54:58;7.57;;;3.80;;
38717;SDS011;24468;52.128;9.278;2023-10-09T04:57:41;6.47;;;3.03;;
38717;SDS011;24468;52.128;9.278;2023-10-09T05:02:55;9.52;;;3.78;;
38717;SDS011;24468;52.128;9.278;2023-10-09T05:05:27;7.75;;;4.15;;
38717;SDS011;24468;52.128;9.278;2023-10-09T05:08:13;6.05;;;3.42;;
38717;SDS011;24468;52.128;9.278;2023-10-09T05:16:06;16.40;;;4.80;;
38717;SDS011;24468;52.128;9.278;2023-10-09T05:18:40;5.68;;;3.38;;
38717;SDS011;24468;52.128;9.278;2023-10-09T05:21:07;5.30;;;3.53;;
38717;SDS011;24468;52.128;9.278;2023-10-09T05:26:34;6.70;;;3.72;;
38717;SDS011;24468;52.128;9.278;2023-10-09T05:32:02;6.80;;;4.55;;
38717;SDS011;24468;52.128;9.278;2023-10-09T05:34:37;8.60;;;4.80;;
38717;SDS011;24468;52.128;9.278;2023-10-09T05:37:23;12.43;;;6.40;;
38717;SDS011;24468;52.128;9.278;2023-10-09T05:39:53;10.48;;;5.93;;
38717;SDS011;24468;52.128;9.278;2023-10-09T05:42:25;7.40;;;5.50;;
38717;SDS011;24468;52.128;9.278;2023-10-09T05:45:08;8.48;;;4.63;;
38717;SDS011;24468;52.128;9.278;2023-10-09T05:47:54;9.48;;;4.55;;
38717;SDS011;24468;52.128;9.278;2023-10-09T05:52:53;8.40;;;4.82;;
38717;SDS011;24468;52.128;9.278;2023-10-09T05:55:24;8.68;;;4.75;;
38717;SDS011;24468;52.128;9.278;2023-10-09T05:58:10;7.82;;;4.43;;
38717;SDS011;24468;52.128;9.278;2023-10-09T06:00:53;8.70;;;4.43;;
38717;SDS011;24468;52.128;9.278;2023-10-09T06:03:37;9.20;;;5.60;;
38717;SDS011;24468;52.128;9.278;2023-10-09T06:06:35;11.05;;;6.03;;
38717;SDS011;24468;52.128;9.278;2023-10-09T06:09:11;7.63;;;5.25;;
38717;SDS011;24468;52.128;9.278;2023-10-09T06:14:14;9.20;;;6.32;;
38717;SDS011;24468;52.128;9.278;2023-10-09T06:16:51;21.10;;;6.80;;
38717;SDS011;24468;52.128;9.278;2023-10-09T06:19:36;13.38;;;7.20;;
38717;SDS011;24468;52.128;9.278;2023-10-09T06:24:37;19.40;;;8.50;;
38717;SDS011;24468;52.128;9.278;2023-10-09T06:27:11;14.32;;;6.93;;
38717;SDS011;24468;52.128;9.278;2023-10-09T06:29:40;10.73;;;6.47;;
38717;SDS011;24468;52.128;9.278;2023-10-09T06:32:13;9.13;;;6.70;;
38717;SDS011;24468;52.128;9.278;2023-10-09T06:34:45;19.08;;;7.85;;
38717;SDS011;24468;52.128;9.278;2023-10-09T06:37:21;12.27;;;7.35;;
38717;SDS011;24468;52.128;9.278;2023-10-09T06:39:48;15.95;;;6.82;;
38717;SDS011;24468;52.128;9.278;2023-10-09T06:42:20;13.80;;;7.45;;
38717;SDS011;24468;52.128;9.278;2023-10-09T06:45:04;21.88;;;8.43;;
38717;SDS011;24468;52.128;9.278;2023-10-09T06:47:34;14.60;;;8.90;;
38717;SDS011;24468;52.128;9.278;2023-10-09T06:50:09;14.60;;;8.75;;
38717;SDS011;24468;52.128;9.278;2023-10-09T06:52:42;11.75;;;8.07;;
38717;SDS011;24468;52.128;9.278;2023-10-09T06:55:26;14.40;;;8.13;;
38717;SDS011;24468;52.128;9.278;2023-10-09T06:58:13;16.20;;;8.60;;
38717;SDS011;24468;52.128;9.278;2023-10-09T07:00:52;16.30;;;8.80;;
38717;SDS011;24468;52.128;9.278;2023-10-09T07:03:20;14.95;;;8.55;;
38717;SDS011;24468;52.128;9.278;2023-10-09T07:06:02;16.63;;;9.80;;
38717;SDS011;24468;52.128;9.278;2023-10-09T07:08:35;16.48;;;10.18;;
38717;SDS011;24468;52.128;9.278;2023-10-09T07:11:04;15.70;;;9.10;;
38717;SDS011;24468;52.128;9.278;2023-10-09T07:14:08;21.67;;;11.23;;
38717;SDS011;24468;52.128;9.278;2023-10-09T07:16:53;11.90;;;9.02;;
38717;SDS011;24468;52.128;9.278;2023-10-09T07:19:22;14.77;;;10.32;;
38717;SDS011;24468;52.128;9.278;2023-10-09T07:22:07;22.98;;;11.25;;
38717;SDS011;24468;52.128;9.278;2023-10-09T07:27:31;19.70;;;11.35;;
38717;SDS011;24468;52.128;9.278;2023-10-09T07:30:09;21.63;;;13.05;;
38717;SDS011;24468;52.128;9.278;2023-10-09T07:35:34;21.30;;;12.43;;
38717;SDS011;24468;52.128;9.278;2023-10-09T07:38:17;22.63;;;12.95;;
38717;SDS011;24468;52.128;9.278;2023-10-09T07:40:48;23.95;;;13.05;;
38717;SDS011;24468;52.128;9.278;2023-10-09T07:43:31;19.60;;;11.77;;
38717;SDS011;24468;52.128;9.278;2023-10-09T07:46:04;22.83;;;13.23;;
38717;SDS011;24468;52.128;9.278;2023-10-09T07:48:52;21.60;;;12.32;;
38717;SDS011;24468;52.128;9.278;2023-10-09T07:51:20;16.77;;;11.20;;
38717;SDS011;24468;52.128;9.278;2023-10-09T07:53:49;20.70;;;11.50;;
38717;SDS011;24468;52.128;9.278;2023-10-09T07:56:22;24.40;;;13.43;;
38717;SDS011;24468;52.128;9.278;2023-10-09T07:58:55;22.85;;;13.70;;
38717;SDS011;24468;52.128;9.278;2023-10-09T08:01:28;18.58;;;12.20;;
38717;SDS011;24468;52.128;9.278;2023-10-09T08:03:54;20.73;;;12.50;;
38717;SDS011;24468;52.128;9.278;2023-10-09T08:06:25;18.92;;;11.48;;
38717;SDS011;24468;52.128;9.278;2023-10-09T08:09:03;18.42;;;11.25;;
38717;SDS011;24468;52.128;9.278;2023-10-09T08:11:47;22.88;;;13.48;;
38717;SDS011;24468;52.128;9.278;2023-10-09T08:14:39;19.92;;;13.15;;
38717;SDS011;24468;52.128;9.278;2023-10-09T08:17:08;22.50;;;11.82;;
38717;SDS011;24468;52.128;9.278;2023-10-09T08:19:40;20.23;;;12.77;;
38717;SDS011;24468;52.128;9.278;2023-10-09T08:22:22;18.42;;;11.70;;
38717;SDS011;24468;52.128;9.278;2023-10-09T08:24:48;28.65;;;12.57;;
38717;SDS011;24468;52.128;9.278;2023-10-09T08:30:01;20.02;;;11.23;;
38717;SDS011;24468;52.128;9.278;2023-10-09T08:32:41;17.13;;;11.30;;
38717;SDS011;24468;52.128;9.278;2023-10-09T08:35:11;16.05;;;11.77;;
38717;SDS011;24468;52.128;9.278;2023-10-09T08:37:58;19.42;;;11.70;;
38717;SDS011;24468;52.128;9.278;2023-10-09T08:45:53;21.73;;;14.77;;
38717;SDS011;24468;52.128;9.278;2023-10-09T08:50:53;20.58;;;13.23;;
38717;SDS011;24468;52.128;9.278;2023-10-09T08:53:21;25.10;;;14.35;;
38717;SDS011;24468;52.128;9.278;2023-10-09T08:55:56;18.70;;;13.82;;
38717;SDS011;24468;52.128;9.278;2023-10-09T08:58:23;23.88;;;17.02;;
38717;SDS011;24468;52.128;9.278;2023-10-09T09:00:51;29.77;;;17.17;;
38717;SDS011;24468;52.128;9.278;2023-10-09T09:03:20;26.02;;;16.30;;
38717;SDS011;24468;52.128;9.278;2023-10-09T09:05:58;25.00;;;16.65;;
38717;SDS011;24468;52.128;9.278;2023-10-09T09:08:30;23.45;;;16.40;;
38717;SDS011;24468;52.128;9.278;2023-10-09T09:11:05;21.70;;;16.30;;
38717;SDS011;24468;52.128;9.278;2023-10-09T09:13:37;22.08;;;16.30;;
38717;SDS011;24468;52.128;9.278;2023-10-09T09:16:14;21.52;;;16.67;;
38717;SDS011;24468;52.128;9.278;2023-10-09T09:19:04;24.25;;;17.10;;
38717;SDS011;24468;52.128;9.278;2023-10-09T09:21:43;26.92;;;17.73;;
38717;SDS011;24468;52.128;9.278;2023-10-09T09:24:14;25.55;;;18.33;;
38717;SDS011;24468;52.128;9.278;2023-10-09T09:27:09;24.90;;;18.85;;
38717;SDS011;24468;52.128;9.278;2023-10-09T09:29:43;28.63;;;17.23;;
38717;SDS011;24468;52.128;9.278;2023-10-09T09:32:17;20.83;;;17.33;;
38717;SDS011;24468;52.128;9.278;2023-10-09T09:35:00;26.55;;;18.10;;
38717;SDS011;24468;52.128;9.278;2023-10-09T09:37:31;28.52;;;18.13;;
38717;SDS011;24468;52.128;9.278;2023-10-09T09:40:15;20.42;;;16.60;;
38717;SDS011;24468;52.128;9.278;2023-10-09T09:42:53;23.63;;;16.30;;
38717;SDS011;24468;52.128;9.278;2023-10-09T09:45:37;24.00;;;18.67;;
38717;SDS011;24468;52.128;9.278;2023-10-09T09:48:07;26.17;;;18.42;;
38717;SDS011;24468;52.128;9.278;2023-10-09T09:55:53;28.63;;;17.98;;
38717;SDS011;24468;52.128;9.278;2023-10-09T09:58:23;22.55;;;17.45;;
38717;SDS011;24468;52.128;9.278;2023-10-09T10:00:53;23.00;;;16.50;;
38717;SDS011;24468;52.128;9.278;2023-10-09T10:03:31;21.38;;;16.70;;
38717;SDS011;24468;52.128;9.278;2023-10-09T10:06:02;21.90;;;16.73;;
38717;SDS011;24468;52.128;9.278;2023-10-09T10:08:35;20.55;;;15.70;;
38717;SDS011;24468;52.128;9.278;2023-10-09T10:11:04;17.05;;;12.98;;
38717;SDS011;24468;52.128;9.278;2023-10-09T10:16:12;16.70;;;13.43;;
38717;SDS011;24468;52.128;9.278;2023-10-09T10:21:36;17.55;;;13.27;;
38717;SDS011;24468;52.128;9.278;2023-10-09T10:29:34;15.75;;;13.85;;
38717;SDS011;24468;52.128;9.278;2023-10-09T10:32:03;17.92;;;14.77;;
38717;SDS011;24468;52.128;9.278;2023-10-09T10:37:20;19.38;;;15.75;;
38717;SDS011;24468;52.128;9.278;2023-10-09T10:40:03;18.08;;;15.00;;
38717;SDS011;24468;52.128;9.278;2023-10-09T10:42:56;20.77;;;14.90;;
38717;SDS011;24468;52.128;9.278;2023-10-09T10:45:34;17.95;;;15.05;;
38717;SDS011;24468;52.128;9.278;2023-10-09T10:48:08;18.73;;;15.68;;
38717;SDS011;24468;52.128;9.278;2023-10-09T10:50:47;18.73;;;15.48;;
38717;SDS011;24468;52.128;9.278;2023-10-09T10:53:22;18.80;;;13.55;;
38717;SDS011;24468;52.128;9.278;2023-10-09T10:55:58;21.75;;;15.60;;
38717;SDS011;24468;52.128;9.278;2023-10-09T10:58:37;18.98;;;15.23;;
38717;SDS011;24468;52.128;9.278;2023-10-09T11:01:03;18.05;;;14.43;;
38717;SDS011;24468;52.128;9.278;2023-10-09T11:03:38;20.15;;;15.65;;
38717;SDS011;24468;52.128;9.278;2023-10-09T11:06:27;20.40;;;14.68;;
38717;SDS011;24468;52.128;9.278;2023-10-09T11:09:03;21.80;;;15.43;;
38717;SDS011;24468;52.128;9.278;2023-10-09T11:11:50;22.83;;;15.98;;
38717;SDS011;24468;52.128;9.278;2023-10-09T11:14:44;20.70;;;15.48;;
38717;SDS011;24468;52.128;9.278;2023-10-09T11:17:30;23.25;;;16.45;;
38717;SDS011;24468;52.128;9.278;2023-10-09T11:19:58;22.05;;;16.40;;
38717;SDS011;24468;52.128;9.278;2023-10-09T11:22:44;21.13;;;16.85;;
38717;SDS011;24468;52.128;9.278;2023-10-09T11:25:30;22.45;;;17.13;;
38717;SDS011;24468;52.128;9.278;2023-10-09T11:27:57;19.70;;;15.57;;
38717;SDS011;24468;52.128;9.278;2023-10-09T11:30:35;21.08;;;14.70;;
38717;SDS011;24468;52.128;9.278;2023-10-09T11:33:06;22.55;;;14.57;;
38717;SDS011;24468;52.128;9.278;2023-10-09T11:35:39;18.30;;;13.45;;
38717;SDS011;24468;52.128;9.278;2023-10-09T11:38:08;16.95;;;11.75;;
38717;SDS011;24468;52.128;9.278;2023-10-09T11:40:46;17.73;;;11.43;;
38717;SDS011;24468;52.128;9.278;2023-10-09T11:43:18;16.63;;;10.85;;
38717;SDS011;24468;52.128;9.278;2023-10-09T11:45:49;12.63;;;10.43;;
38717;SDS011;24468;52.128;9.278;2023-10-09T11:51:11;12.10;;;8.57;;
38717;SDS011;24468;52.128;9.278;2023-10-09T11:53:46;9.07;;;7.90;;
38717;SDS011;24468;52.128;9.278;2023-10-09T11:56:15;13.35;;;7.70;;
38717;SDS011;24468;52.128;9.278;2023-10-09T11:58:48;9.30;;;7.43;;
38717;SDS011;24468;52.128;9.278;2023-10-09T12:01:17;9.02;;;7.88;;
38717;SDS011;24468;52.128;9.278;2023-10-09T12:03:45;10.02;;;8.32;;
38717;SDS011;24468;52.128;9.278;2023-10-09T12:06:14;11.60;;;9.20;;
38717;SDS011;24468;52.128;9.278;2023-10-09T12:08:43;12.73;;;8.63;;
38717;SDS011;24468;52.128;9.278;2023-10-09T12:11:12;13.52;;;8.05;;
38717;SDS011;24468;52.128;9.278;2023-10-09T12:13:39;8.85;;;7.15;;
38717;SDS011;24468;52.128;9.278;2023-10-09T12:16:08;10.25;;;8.18;;
38717;SDS011;24468;52.128;9.278;2023-10-09T12:18:36;9.45;;;7.97;;
38717;SDS011;24468;52.128;9.278;2023-10-09T12:21:04;7.85;;;7.10;;
38717;SDS011;24468;52.128;9.278;2023-10-09T12:23:31;9.52;;;7.53;;
38717;SDS011;24468;52.128;9.278;2023-10-09T12:26:05;8.38;;;6.82;;
38717;SDS011;24468;52.128;9.278;2023-10-09T12:28:39;10.32;;;6.97;;
38717;SDS011;24468;52.128;9.278;2023-10-09T12:31:15;7.57;;;5.88;;
38717;SDS011;24468;52.128;9.278;2023-10-09T12:33:44;9.32;;;6.35;;
38717;SDS011;24468;52.128;9.278;2023-10-09T12:36:12;8.25;;;6.50;;
38717;SDS011;24468;52.128;9.278;2023-10-09T12:38:45;8.27;;;6.60;;
38717;SDS011;24468;52.128;9.278;2023-10-09T12:41:15;10.85;;;7.32;;
38717;SDS011;24468;52.128;9.278;2023-10-09T12:43:51;6.95;;;6.25;;
38717;SDS011;24468;52.128;9.278;2023-10-09T12:46:21;8.13;;;6.32;;
38717;SDS011;24468;52.128;9.278;2023-10-09T12:48:50;10.55;;;8.15;;
38717;SDS011;24468;52.128;9.278;2023-10-09T12:51:19;9.50;;;7.53;;
38717;SDS011;24468;52.128;9.278;2023-10-09T12:53:50;8.95;;;7.68;;
38717;SDS011;24468;52.128;9.278;2023-10-09T12:56:22;10.63;;;8.98;;
38717;SDS011;24468;52.128;9.278;2023-10-09T12:59:00;13.77;;;8.60;;
38717;SDS011;24468;52.128;9.278;2023-10-09T13:03:57;9.77;;;8.75;;
38717;SDS011;24468;52.128;9.278;2023-10-09T13:06:27;11.75;;;9.05;;
38717;SDS011;24468;52.128;9.278;2023-10-09T13:08:52;14.20;;;9.52;;
38717;SDS011;24468;52.128;9.278;2023-10-09T13:11:21;12.65;;;9.80;;
38717;SDS011;24468;52.128;9.278;2023-10-09T13:13:46;13.05;;;10.32;;
38717;SDS011;24468;52.128;9.278;2023-10-09T13:16:16;16.42;;;11.18;;
38717;SDS011;24468;52.128;9.278;2023-10-09T13:18:48;13.18;;;9.80;;
38717;SDS011;24468;52.128;9.278;2023-10-09T13:21:30;13.35;;;10.65;;
38717;SDS011;24468;52.128;9.278;2023-10-09T13:23:59;15.10;;;10.75;;
38717;SDS011;24468;52.128;9.278;2023-10-09T13:26:26;12.73;;;9.57;;
38717;SDS011;24468;52.128;9.278;2023-10-09T13:28:56;17.05;;;11.93;;
38717;SDS011;24468;52.128;9.278;2023-10-09T13:31:24;15.27;;;11.00;;
38717;SDS011;24468;52.128;9.278;2023-10-09T13:33:51;14.63;;;11.43;;
38717;SDS011;24468;52.128;9.278;2023-10-09T13:36:20;14.75;;;11.23;;
38717;SDS011;24468;52.128;9.278;2023-10-09T13:39:02;13.35;;;10.43;;
38717;SDS011;24468;52.128;9.278;2023-10-09T13:41:49;14.45;;;10.52;;
38717;SDS011;24468;52.128;9.278;2023-10-09T13:44:26;13.88;;;11.93;;
38717;SDS011;24468;52.128;9.278;2023-10-09T13:46:54;13.75;;;11.05;;
38717;SDS011;24468;52.128;9.278;2023-10-09T13:49:27;13.65;;;11.15;;
38717;SDS011;24468;52.128;9.278;2023-10-09T13:51:56;14.38;;;10.70;;
38717;SDS011;24468;52.128;9.278;2023-10-09T13:54:26;14.30;;;9.93;;
38717;SDS011;24468;52.128;9.278;2023-10-09T13:56:58;13.15;;;10.02;;
38717;SDS011;24468;52.128;9.278;2023-10-09T13:59:34;14.98;;;10.80;;
38717;SDS011;24468;52.128;9.278;2023-10-09T14:02:01;12.90;;;11.45;;
38717;SDS011;24468;52.128;9.278;2023-10-09T14:04:34;16.02;;;11.45;;
38717;SDS011;24468;52.128;9.278;2023-10-09T14:07:00;16.88;;;13.25;;
38717;SDS011;24468;52.128;9.278;2023-10-09T14:09:27;13.60;;;11.00;;
38717;SDS011;24468;52.128;9.278;2023-10-09T14:11:56;13.10;;;9.40;;
38717;SDS011;24468;52.128;9.278;2023-10-09T14:14:32;11.88;;;9.05;;
38717;SDS011;24468;52.128;9.278;2023-10-09T14:19:36;14.15;;;9.55;;
38717;SDS011;24468;52.128;9.278;2023-10-09T14:22:19;10.05;;;7.97;;
38717;SDS011;24468;52.128;9.278;2023-10-09T14:24:52;15.48;;;8.95;;
38717;SDS011;24468;52.128;9.278;2023-10-09T14:27:23;12.27;;;9.53;;
38717;SDS011;24468;52.128;9.278;2023-10-09T14:30:01;16.00;;;9.70;;
38717;SDS011;24468;52.128;9.278;2023-10-09T14:32:37;11.30;;;8.40;;
38717;SDS011;24468;52.128;9.278;2023-10-09T14:35:09;13.18;;;8.65;;
38717;SDS011;24468;52.128;9.278;2023-10-09T14:37:38;10.57;;;9.20;;
38717;SDS011;24468;52.128;9.278;2023-10-09T14:40:05;12.63;;;9.10;;
38717;SDS011;24468;52.128;9.278;2023-10-09T14:42:45;11.68;;;9.65;;
38717;SDS011;24468;52.128;9.278;2023-10-09T14:45:11;13.70;;;8.93;;
38717;SDS011;24468;52.128;9.278;2023-10-09T14:47:43;10.35;;;8.55;;
38717;SDS011;24468;52.128;9.278;2023-10-09T14:50:12;13.98;;;9.23;;
38717;SDS011;24468;52.128;9.278;2023-10-09T14:52:39;14.25;;;10.88;;
38717;SDS011;24468;52.128;9.278;2023-10-09T14:55:05;12.75;;;8.77;;
38717;SDS011;24468;52.128;9.278;2023-10-09T14:57:32;14.32;;;9.07;;
38717;SDS011;24468;52.128;9.278;2023-10-09T15:00:00;16.98;;;9.43;;
38717;SDS011;24468;52.128;9.278;2023-10-09T15:02:32;13.23;;;9.02;;
38717;SDS011;24468;52.128;9.278;2023-10-09T15:04:58;10.25;;;7.88;;
38717;SDS011;24468;52.128;9.278;2023-10-09T15:07:24;9.90;;;8.00;;
38717;SDS011;24468;52.128;9.278;2023-10-09T15:09:49;12.85;;;8.65;;
38717;SDS011;24468;52.128;9.278;2023-10-09T15:12:16;10.98;;;8.00;;
38717;SDS011;24468;52.128;9.278;2023-10-09T15:14:41;12.18;;;8.70;;
38717;SDS011;24468;52.128;9.278;2023-10-09T15:17:08;12.88;;;8.70;;
38717;SDS011;24468;52.128;9.278;2023-10-09T15:19:33;12.90;;;7.85;;
38717;SDS011;24468;52.128;9.278;2023-10-09T15:21:59;12.55;;;8.68;;
38717;SDS011;24468;52.128;9.278;2023-10-09T15:24:25;11.40;;;8.63;;
38717;SDS011;24468;52.128;9.278;2023-10-09T15:26:52;11.45;;;7.53;;
38717;SDS011;24468;52.128;9.278;2023-10-09T15:29:22;16.20;;;8.32;;
38717;SDS011;24468;52.128;9.278;2023-10-09T15:31:59;16.73;;;7.53;;
38717;SDS011;24468;52.128;9.278;2023-10-09T15:34:30;7.63;;;6.30;;
38717;SDS011;24468;52.128;9.278;2023-10-09T15:36:56;10.27;;;7.28;;
38717;SDS011;24468;52.128;9.278;2023-10-09T15:39:22;11.77;;;7.43;;
38717;SDS011;24468;52.128;9.278;2023-10-09T15:41:48;12.48;;;7.82;;
38717;SDS011;24468;52.128;9.278;2023-10-09T15:44:15;16.40;;;6.90;;
38717;SDS011;24468;52.128;9.278;2023-10-09T15:46:42;12.60;;;7.93;;
38717;SDS011;24468;52.128;9.278;2023-10-09T15:49:10;10.52;;;7.28;;
38717;SDS011;24468;52.128;9.278;2023-10-09T15:51:38;13.13;;;7.60;;
38717;SDS011;24468;52.128;9.278;2023-10-09T15:54:04;11.38;;;7.30;;
38717;SDS011;24468;52.128;9.278;2023-10-09T15:56:30;13.57;;;7.63;;
38717;SDS011;24468;52.128;9.278;2023-10-09T15:58:56;11.57;;;7.82;;
38717;SDS011;24468;52.128;9.278;2023-10-09T16:01:21;10.85;;;8.02;;
38717;SDS011;24468;52.128;9.278;2023-10-09T16:03:47;9.68;;;7.78;;
38717;SDS011;24468;52.128;9.278;2023-10-09T16:06:15;13.35;;;7.72;;
38717;SDS011;24468;52.128;9.278;2023-10-09T16:08:43;12.20;;;6.90;;
38717;SDS011;24468;52.128;9.278;2023-10-09T16:11:11;11.25;;;7.68;;
38717;SDS011;24468;52.128;9.278;2023-10-09T16:13:44;11.48;;;7.78;;
38717;SDS011;24468;52.128;9.278;2023-10-09T16:16:10;14.80;;;7.05;;